Asian Infinity — 3EVP3 — position and weather

sailwx.info

Track history (hours):
 
Tides and Currents Weather Stations Pressure Air Temp Water Temp Dewpoint Dewpoint Depression Visibility Wind Speed Wind Dir Waves Ship Positions

Asian Infinity

Last reported at 2018-Apr-18 11:41 UTC. Time now 2018-Apr-24 16:27 UTC.
Position N 34°03' E 136°43'.

Length 104 m; draft 6.4 m.

Type: Cargo ship. MMSI: 351868000.

Date/timePositionNaut miles runAvg speedWind from/ knotsBaromVisibWave heightAir tempDewpointWater temp
2018-Apr-18 11:41N 34°03' E 136°43'3 9.6
2018-Apr-18 11:26N 34°05' E 136°45'24 9.4
2018-Apr-18 08:49N 34°26' E 137°01'3 9.9
2018-Apr-18 08:29N 34°29' E 137°02'4 8.9
2018-Apr-18 08:00N 34°33' E 137°00'5 9.0
2018-Apr-18 07:30N 34°36' E 136°56'5 9.6
2018-Apr-18 07:00N 34°39' E 136°52'5 9.4
2018-Apr-18 06:30N 34°43' E 136°48'5 9.7
2018-Apr-18 06:00N 34°48' E 136°46'5 9.7
2018-Apr-18 05:30N 34°52' E 136°46'5 9.5
2018-Apr-18 05:00N 34°57' E 136°47'5 9.8
2018-Apr-18 04:30N 35°01' E 136°50'2 3.3
2018-Apr-18 03:59N 35°03' E 136°51'0 0.0
2018-Apr-18 03:29N 35°03' E 136°51'0 0.0
2018-Apr-18 02:59N 35°03' E 136°51'0 0.0
2018-Apr-18 02:29N 35°03' E 136°51'0 0.0
2018-Apr-18 01:59N 35°03' E 136°51'0 0.0
2018-Apr-18 01:29N 35°03' E 136°51'0 0.0
2018-Apr-18 00:59N 35°03' E 136°51'0 0.0
2018-Apr-18 00:26N 35°03' E 136°51'0 0.0
2018-Apr-17 23:56N 35°03' E 136°51'0 0.0
2018-Apr-17 23:26N 35°03' E 136°51'0 0.0
2018-Apr-17 22:56N 35°03' E 136°51'0 0.0
2018-Apr-17 22:29N 35°03' E 136°51'0 0.0
2018-Apr-17 21:59N 35°03' E 136°51'0 0.0
2018-Apr-17 21:29N 35°03' E 136°51'0 0.0
2018-Apr-17 20:59N 35°03' E 136°51'0 0.0
2018-Apr-17 20:29N 35°03' E 136°51'0 0.0
2018-Apr-17 19:56N 35°03' E 136°51'0 0.0
2018-Apr-17 19:29N 35°03' E 136°51'0 0.0
2018-Apr-17 18:59N 35°03' E 136°51'0 0.0
2018-Apr-17 18:26N 35°03' E 136°51'0 0.0
2018-Apr-17 17:59N 35°03' E 136°51'0 0.0
2018-Apr-17 17:29N 35°03' E 136°51'0 0.0
2018-Apr-17 16:59N 35°03' E 136°51'0 0.0
2018-Apr-17 16:29N 35°03' E 136°51'0 0.0
2018-Apr-17 15:59N 35°03' E 136°51'0 0.0
2018-Apr-17 15:23N 35°03' E 136°51'0 0.0
2018-Apr-17 14:56N 35°03' E 136°51'0 0.0
2018-Apr-17 14:26N 35°03' E 136°51'0 0.0
2018-Apr-17 13:56N 35°03' E 136°51'0 0.0
2018-Apr-17 13:29N 35°03' E 136°51'0 0.0
2018-Apr-17 12:59N 35°03' E 136°51'0 0.0
2018-Apr-17 12:29N 35°03' E 136°51'0 0.0
2018-Apr-17 11:56N 35°03' E 136°51'0 0.0
2018-Apr-17 11:26N 35°03' E 136°51'0 0.0
2018-Apr-17 10:44N 35°03' E 136°51'0 0.0
2018-Apr-17 10:29N 35°03' E 136°51'0 0.0
2018-Apr-17 09:56N 35°03' E 136°51'0 0.0
2018-Apr-17 09:26N 35°03' E 136°51'0 0.0
2018-Apr-17 08:59N 35°03' E 136°51'0 0.0
2018-Apr-17 08:26N 35°03' E 136°51'0 0.1
2018-Apr-17 07:59N 35°03' E 136°51'0 0.1
2018-Apr-17 07:29N 35°03' E 136°51'0 0.0
2018-Apr-17 06:56N 35°03' E 136°51'0 0.1
2018-Apr-17 06:30N 35°03' E 136°51'1 2.1
2018-Apr-17 06:00N 35°02' E 136°51'4 7.3
2018-Apr-17 05:30N 34°59' E 136°48'5 9.6
2018-Apr-17 05:00N 34°54' E 136°46'510.6
2018-Apr-17 04:30N 34°49' E 136°46'510.6
2018-Apr-17 04:00N 34°44' E 136°49'510.1
2018-Apr-17 03:30N 34°40' E 136°52'5 9.7
2018-Apr-17 02:59N 34°37' E 136°57'5 9.5
2018-Apr-17 02:30N 34°33' E 137°01'5 8.5
2018-Apr-17 01:54N 34°31' E 137°06'410.0
2018-Apr-17 01:30N 34°30' E 137°11'510.2
2018-Apr-17 01:00N 34°29' E 137°17'510.0
2018-Apr-17 00:30N 34°29' E 137°23'1610.4
2018-Apr-16 22:58N 34°30' E 137°42'610.6
2018-Apr-16 22:25N 34°30' E 137°49'4 9.7
2018-Apr-16 21:57N 34°30' E 137°55'610.6
2018-Apr-16 21:24N 34°30' E 138°02'511.2
2018-Apr-16 20:57N 34°30' E 138°08'510.1
2018-Apr-16 20:25N 34°31' E 138°14'510.5
2018-Apr-16 19:58N 34°31' E 138°20'510.6
2018-Apr-16 19:29N 34°32' E 138°26'610.4
2018-Apr-16 18:55N 34°32' E 138°33'410.0
2018-Apr-16 18:30N 34°32' E 138°38'5 9.9
2018-Apr-16 18:00N 34°32' E 138°45'510.0
2018-Apr-16 17:30N 34°32' E 138°51'5 9.6
2018-Apr-16 16:59N 34°32' E 138°57'510.2
2018-Apr-16 16:29N 34°36' E 139°01'5 9.9
2018-Apr-16 16:00N 34°39' E 139°05'8 9.7
2018-Apr-16 15:09N 34°46' E 139°12'2 9.5
2018-Apr-16 14:57N 34°47' E 139°13'4 9.4
2018-Apr-16 14:30N 34°50' E 139°17'4 8.9
2018-Apr-16 14:00N 34°53' E 139°21'4 8.5
2018-Apr-16 13:28N 34°55' E 139°26'4 8.8
2018-Apr-16 13:00N 34°58' E 139°29'5 9.2
2018-Apr-16 12:30N 35°01' E 139°34'5 9.3
2018-Apr-16 12:00N 35°04' E 139°38'5 9.7
2018-Apr-16 11:30N 35°07' E 139°43'5 9.8
2018-Apr-16 11:00N 35°11' E 139°46'5 9.8
2018-Apr-16 10:30N 35°16' E 139°45'510.1
2018-Apr-16 10:00N 35°21' E 139°42'510.1
2018-Apr-16 09:30N 35°26' E 139°42'2 4.2
2018-Apr-16 09:01N 35°27' E 139°40'0 0.1
2018-Apr-16 08:29N 35°27' E 139°40'0 0.0
2018-Apr-16 07:59N 35°27' E 139°40'0 0.1
2018-Apr-16 07:29N 35°27' E 139°40'0 0.1
2018-Apr-16 06:59N 35°27' E 139°40'0 0.0
2018-Apr-16 06:29N 35°27' E 139°40'0 0.1
2018-Apr-16 05:59N 35°27' E 139°40'0 0.1
2018-Apr-16 05:29N 35°27' E 139°40'0 0.0
2018-Apr-16 04:59N 35°27' E 139°40'0 0.0
2018-Apr-16 04:29N 35°27' E 139°40'0 0.0
2018-Apr-16 03:59N 35°27' E 139°40'0 0.1
2018-Apr-16 03:29N 35°27' E 139°40'0 0.0
2018-Apr-16 02:59N 35°27' E 139°40'0 0.1
2018-Apr-16 02:29N 35°27' E 139°40'0 0.0
2018-Apr-16 01:59N 35°27' E 139°40'0 0.1
2018-Apr-16 01:29N 35°27' E 139°40'0 0.1
2018-Apr-16 00:59N 35°27' E 139°40'0 0.0
2018-Apr-16 00:29N 35°27' E 139°40'0 0.0
2018-Apr-15 23:59N 35°27' E 139°40'0 0.0
2018-Apr-15 23:29N 35°27' E 139°40'0 0.0
2018-Apr-15 22:59N 35°27' E 139°40'0 0.0
2018-Apr-15 22:29N 35°27' E 139°40'0 0.0
2018-Apr-15 21:59N 35°27' E 139°40'0 0.1
2018-Apr-15 21:29N 35°27' E 139°40'0 0.0
2018-Apr-15 20:59N 35°27' E 139°40'0 0.1
2018-Apr-15 20:29N 35°27' E 139°40'0 0.0
2018-Apr-15 19:59N 35°27' E 139°40'0 0.0
2018-Apr-15 19:29N 35°27' E 139°40'0 0.0
2018-Apr-15 18:59N 35°27' E 139°40'0 0.0
2018-Apr-15 18:29N 35°27' E 139°40'0 0.0
2018-Apr-15 17:59N 35°27' E 139°40'0 0.1
2018-Apr-15 17:29N 35°27' E 139°40'0 0.0
2018-Apr-15 16:59N 35°27' E 139°40'0 0.0
2018-Apr-15 16:29N 35°27' E 139°40'0 0.0
2018-Apr-15 15:59N 35°27' E 139°40'0 0.0
2018-Apr-15 15:29N 35°27' E 139°40'0 0.1
2018-Apr-15 14:59N 35°27' E 139°40'0 0.0
2018-Apr-15 14:29N 35°27' E 139°40'0 0.0
2018-Apr-15 13:59N 35°27' E 139°40'0 0.0
2018-Apr-15 13:29N 35°27' E 139°40'0 0.1
2018-Apr-15 12:59N 35°27' E 139°40'0 0.1
2018-Apr-15 12:29N 35°27' E 139°40'0 0.1
2018-Apr-15 11:59N 35°27' E 139°40'0 0.1
2018-Apr-15 11:29N 35°27' E 139°40'0 0.1
2018-Apr-15 10:59N 35°27' E 139°40'0 0.1
2018-Apr-15 10:29N 35°27' E 139°40'0 0.0
2018-Apr-15 09:59N 35°27' E 139°40'0 0.0
2018-Apr-15 09:29N 35°27' E 139°40'0 0.0
2018-Apr-15 08:59N 35°27' E 139°40'0 0.1
2018-Apr-15 08:29N 35°27' E 139°40'0 0.1
2018-Apr-15 07:59N 35°27' E 139°40'0 0.0
2018-Apr-15 07:29N 35°27' E 139°40'0 0.0
2018-Apr-15 06:59N 35°27' E 139°40'0 0.0
2018-Apr-15 06:29N 35°27' E 139°40'0 0.0
2018-Apr-15 05:59N 35°27' E 139°40'0 0.0
2018-Apr-15 05:29N 35°27' E 139°40'0 0.1
2018-Apr-15 04:59N 35°27' E 139°40'0 0.1
2018-Apr-15 04:29N 35°27' E 139°40'0 0.0
2018-Apr-15 03:59N 35°27' E 139°40'0 0.1
2018-Apr-15 03:29N 35°27' E 139°40'0 0.0
2018-Apr-15 02:59N 35°27' E 139°40'0 0.1
2018-Apr-15 02:29N 35°27' E 139°40'0 0.0
2018-Apr-15 01:59N 35°27' E 139°40'0 0.1
2018-Apr-15 01:29N 35°27' E 139°40'0 0.1
2018-Apr-15 00:59N 35°27' E 139°40'0 0.0
2018-Apr-15 00:29N 35°27' E 139°40'0 0.0
2018-Apr-14 23:59N 35°27' E 139°40'0 0.0
2018-Apr-14 23:29N 35°27' E 139°40'0 0.0
2018-Apr-14 22:59N 35°27' E 139°40'0 0.0
2018-Apr-14 22:29N 35°27' E 139°40'0 0.0
2018-Apr-14 21:59N 35°27' E 139°40'0 0.1
2018-Apr-14 21:29N 35°27' E 139°40'0 0.1
2018-Apr-14 20:59N 35°27' E 139°40'0 0.1
2018-Apr-14 20:29N 35°27' E 139°40'0 0.1
2018-Apr-14 19:59N 35°27' E 139°40'0 0.0
2018-Apr-14 19:29N 35°27' E 139°40'0 0.1
2018-Apr-14 18:59N 35°27' E 139°40'0 0.0
2018-Apr-14 18:29N 35°27' E 139°40'0 0.0
2018-Apr-14 17:56N 35°27' E 139°40'0 0.0
2018-Apr-14 17:29N 35°27' E 139°40'0 0.0
2018-Apr-14 16:59N 35°27' E 139°40'0 0.1
2018-Apr-14 16:29N 35°27' E 139°40'0 0.1
2018-Apr-14 15:59N 35°27' E 139°40'0 0.1
2018-Apr-14 15:29N 35°27' E 139°40'0 0.0
2018-Apr-14 14:59N 35°27' E 139°40'0 0.0
2018-Apr-14 14:29N 35°27' E 139°40'0 0.1
2018-Apr-14 13:59N 35°27' E 139°40'0 0.1
2018-Apr-14 13:29N 35°27' E 139°40'0 0.1
2018-Apr-14 12:59N 35°27' E 139°40'0 0.1
2018-Apr-14 12:29N 35°27' E 139°40'0 0.1
2018-Apr-14 11:59N 35°27' E 139°40'0 0.1
2018-Apr-14 11:29N 35°27' E 139°40'0 0.0
2018-Apr-14 10:59N 35°27' E 139°40'0 0.0
2018-Apr-14 10:29N 35°27' E 139°40'0 0.0
2018-Apr-14 09:59N 35°27' E 139°40'0 0.1
2018-Apr-14 09:29N 35°27' E 139°40'0 0.0
2018-Apr-14 08:59N 35°27' E 139°40'0 0.0
2018-Apr-14 08:29N 35°27' E 139°40'0 0.0
2018-Apr-14 07:59N 35°27' E 139°40'0 0.1
2018-Apr-14 07:29N 35°27' E 139°40'0 0.0
2018-Apr-14 06:59N 35°27' E 139°40'0 0.1
2018-Apr-14 06:29N 35°27' E 139°40'0 0.0
2018-Apr-14 05:59N 35°27' E 139°40'0 0.0
2018-Apr-14 05:29N 35°27' E 139°40'0 0.0
2018-Apr-14 04:59N 35°27' E 139°40'0 0.1
2018-Apr-14 04:29N 35°27' E 139°40'0 0.0
2018-Apr-14 03:59N 35°27' E 139°40'0 0.0
2018-Apr-14 03:29N 35°27' E 139°40'0 0.0
2018-Apr-14 02:59N 35°27' E 139°40'0 0.0
2018-Apr-14 02:29N 35°27' E 139°40'0 0.1
2018-Apr-14 01:59N 35°27' E 139°40'0 0.0
2018-Apr-14 01:29N 35°27' E 139°40'0 0.1
2018-Apr-14 00:59N 35°27' E 139°40'0 0.0
2018-Apr-14 00:29N 35°27' E 139°40'0 0.0
2018-Apr-13 23:59N 35°27' E 139°40'0 0.0
2018-Apr-13 23:29N 35°27' E 139°40'0 0.0
2018-Apr-13 22:59N 35°27' E 139°40'0 0.1
2018-Apr-13 22:29N 35°27' E 139°40'0 0.1
2018-Apr-13 21:59N 35°27' E 139°40'0 0.0
2018-Apr-13 21:29N 35°27' E 139°40'0 0.1
2018-Apr-13 20:56N 35°27' E 139°40'0 0.1
2018-Apr-13 20:29N 35°27' E 139°40'0 0.1
2018-Apr-13 19:59N 35°27' E 139°40'0 0.1
2018-Apr-13 19:29N 35°27' E 139°40'0 0.0
2018-Apr-13 18:59N 35°27' E 139°40'0 0.0
2018-Apr-13 18:29N 35°27' E 139°40'0 0.0
2018-Apr-13 17:59N 35°27' E 139°40'0 0.0
2018-Apr-13 17:29N 35°27' E 139°40'0 0.0
2018-Apr-13 16:59N 35°27' E 139°40'0 0.1
2018-Apr-13 16:29N 35°27' E 139°40'0 0.1
2018-Apr-13 15:59N 35°27' E 139°40'0 0.0
2018-Apr-13 15:29N 35°27' E 139°40'0 0.0
2018-Apr-13 14:59N 35°27' E 139°40'0 0.0
2018-Apr-13 14:29N 35°27' E 139°40'0 0.0
2018-Apr-13 13:59N 35°27' E 139°40'0 0.0
2018-Apr-13 13:29N 35°27' E 139°40'0 0.0
2018-Apr-13 12:59N 35°27' E 139°40'0 0.0
2018-Apr-13 12:29N 35°27' E 139°40'0 0.0
2018-Apr-13 11:59N 35°27' E 139°40'0 0.0
2018-Apr-13 11:29N 35°27' E 139°40'0 0.0
2018-Apr-13 10:59N 35°27' E 139°40'0 0.0
2018-Apr-13 10:29N 35°27' E 139°40'0 0.0
2018-Apr-13 09:59N 35°27' E 139°40'0 0.0
2018-Apr-13 09:29N 35°27' E 139°40'0 0.1
2018-Apr-13 08:59N 35°27' E 139°40'0 0.0
2018-Apr-13 08:29N 35°27' E 139°40'0 0.0
2018-Apr-13 07:59N 35°27' E 139°40'0 0.1
2018-Apr-13 07:29N 35°27' E 139°40'0 0.0
2018-Apr-13 06:59N 35°27' E 139°40'0 0.0
2018-Apr-13 06:29N 35°27' E 139°40'0 0.0
2018-Apr-13 05:59N 35°27' E 139°40'0 0.0
2018-Apr-13 05:29N 35°27' E 139°40'0 0.0
2018-Apr-13 04:56N 35°27' E 139°40'0 0.0
2018-Apr-13 04:29N 35°27' E 139°40'0 0.0
2018-Apr-13 03:59N 35°27' E 139°40'0 0.0
2018-Apr-13 03:29N 35°27' E 139°40'0 0.0
2018-Apr-13 02:59N 35°27' E 139°40'0 0.0
2018-Apr-13 02:29N 35°27' E 139°40'0 0.1
2018-Apr-13 01:59N 35°27' E 139°40'0 0.0
2018-Apr-13 01:29N 35°27' E 139°40'0 0.1
2018-Apr-13 00:59N 35°27' E 139°40'0 0.1
2018-Apr-13 00:29N 35°27' E 139°40'0 0.1
2018-Apr-12 23:59N 35°27' E 139°40'0 0.0
2018-Apr-12 23:29N 35°27' E 139°40'0 0.1
2018-Apr-12 22:59N 35°27' E 139°40'0 0.1
2018-Apr-12 22:29N 35°27' E 139°40'0 0.0
2018-Apr-12 21:59N 35°27' E 139°40'0 0.1
2018-Apr-12 21:29N 35°27' E 139°40'0 0.1
2018-Apr-12 20:59N 35°27' E 139°40'0 0.1
2018-Apr-12 20:29N 35°27' E 139°40'0 0.1
2018-Apr-12 19:59N 35°27' E 139°40'0 0.1
2018-Apr-12 19:29N 35°27' E 139°40'0 0.0
2018-Apr-12 18:59N 35°27' E 139°40'0 0.1
2018-Apr-12 18:29N 35°27' E 139°40'0 0.1
2018-Apr-12 17:59N 35°27' E 139°40'0 0.0
2018-Apr-12 17:29N 35°27' E 139°40'0 0.1
2018-Apr-12 16:59N 35°27' E 139°40'0 0.1
2018-Apr-12 16:29N 35°27' E 139°40'0 0.0
2018-Apr-12 15:59N 35°27' E 139°40'0 0.1
2018-Apr-12 15:29N 35°27' E 139°40'0 0.1
2018-Apr-12 14:59N 35°27' E 139°40'0 0.1
2018-Apr-12 14:29N 35°27' E 139°40'0 0.1
2018-Apr-12 13:59N 35°27' E 139°40'0 0.1
2018-Apr-12 13:29N 35°27' E 139°40'0 0.1
2018-Apr-12 12:56N 35°27' E 139°40'0 0.0
2018-Apr-12 12:29N 35°27' E 139°40'0 0.0
2018-Apr-12 11:59N 35°27' E 139°40'0 0.1
2018-Apr-12 11:29N 35°27' E 139°40'0 0.0
2018-Apr-12 10:59N 35°27' E 139°40'0 0.0
2018-Apr-12 10:29N 35°27' E 139°40'0 0.1
2018-Apr-12 09:59N 35°27' E 139°40'0 0.1
2018-Apr-12 09:29N 35°27' E 139°40'0 0.1
2018-Apr-12 08:59N 35°27' E 139°40'0 0.1
2018-Apr-12 08:29N 35°27' E 139°40'0 0.0
2018-Apr-12 07:59N 35°27' E 139°40'0 0.0
2018-Apr-12 07:29N 35°27' E 139°40'0 0.0
2018-Apr-12 06:59N 35°27' E 139°40'0 0.0
2018-Apr-12 06:29N 35°27' E 139°40'0 0.0
2018-Apr-12 05:59N 35°27' E 139°40'0 0.1
2018-Apr-12 05:29N 35°27' E 139°40'0 0.1
2018-Apr-12 04:59N 35°27' E 139°40'0 0.0
2018-Apr-12 04:29N 35°27' E 139°40'0 0.0
2018-Apr-12 03:59N 35°27' E 139°40'0 0.0
2018-Apr-12 03:29N 35°27' E 139°40'0 0.0
2018-Apr-12 02:59N 35°27' E 139°40'0 0.0
2018-Apr-12 02:26N 35°27' E 139°40'0 0.0
2018-Apr-12 01:59N 35°27' E 139°40'0 0.0
2018-Apr-12 01:29N 35°27' E 139°40'0 0.0
2018-Apr-12 01:00N 35°27' E 139°40'1 2.7
2018-Apr-12 00:30N 35°27' E 139°42'3 6.3
2018-Apr-12 00:00N 35°24' E 139°43'3 6.9
2018-Apr-11 23:30N 35°20' E 139°43'5 9.1
2018-Apr-11 23:00N 35°16' E 139°46'5 9.5
2018-Apr-11 22:30N 35°12' E 139°47'510.6
2018-Apr-11 22:00N 35°07' E 139°46'510.9
2018-Apr-11 21:30N 35°03' E 139°41'4 8.9
2018-Apr-11 21:00N 34°59' E 139°39'4 8.0
2018-Apr-11 20:30N 34°57' E 139°34'611.5
2018-Apr-11 20:00N 34°55' E 139°28'3 5.8
2018-Apr-11 19:30N 34°54' E 139°32'4 7.7
2018-Apr-11 19:00N 34°53' E 139°36'510.7
2018-Apr-11 18:31N 34°52' E 139°29'611.1
2018-Apr-11 18:00N 34°52' E 139°23'612.8
2018-Apr-11 17:30N 34°47' E 139°17'812.8
2018-Apr-11 16:52N 34°41' E 139°11'512.6
2018-Apr-11 16:31N 34°38' E 139°07'612.0
2018-Apr-11 16:00N 34°33' E 139°02'611.9
2018-Apr-11 15:30N 34°31' E 138°55'612.0
2018-Apr-11 14:58N 34°31' E 138°47'712.6
2018-Apr-11 14:24N 34°30' E 138°39'512.8
2018-Apr-11 14:00N 34°29' E 138°32'16610.6
2018-Apr-10 22:17N 33°32' E 135°24'610.0
2018-Apr-10 21:44N 33°35' E 135°19'411.2
2018-Apr-10 21:24N 33°38' E 135°16'811.2
2018-Apr-10 20:41N 33°44' E 135°09'2 9.8
2018-Apr-10 20:30N 33°45' E 135°08'5 9.8
2018-Apr-10 19:59N 33°49' E 135°03'5 9.7
2018-Apr-10 19:30N 33°52' E 134°60'5 9.1
2018-Apr-10 19:00N 33°57' E 134°60'4 8.7
2018-Apr-10 18:30N 34°01' E 134°60'4 8.8
2018-Apr-10 18:00N 34°06' E 134°59'5 9.2
2018-Apr-10 17:30N 34°10' E 134°59'5 9.4
2018-Apr-10 17:00N 34°15' E 134°59'4 8.7
2018-Apr-10 16:30N 34°19' E 134°59'5 9.6
2018-Apr-10 16:00N 34°24' E 135°01'5 9.5
2018-Apr-10 15:30N 34°28' E 135°02'5 9.5
2018-Apr-10 15:00N 34°33' E 135°04'5 9.1
2018-Apr-10 14:30N 34°37' E 135°01'611.6
2018-Apr-10 14:00N 34°35' E 134°54'611.7
2018-Apr-10 13:30N 34°33' E 134°48'510.9
2018-Apr-10 13:00N 34°31' E 134°42'510.5
2018-Apr-10 12:30N 34°29' E 134°36'510.2
2018-Apr-10 12:00N 34°27' E 134°30'510.4
2018-Apr-10 11:30N 34°25' E 134°24'510.8
2018-Apr-10 11:00N 34°24' E 134°18'510.4
2018-Apr-10 10:29N 34°24' E 134°12'  
Track history (hours):
 
Tides and Currents Weather Stations Pressure Air Temp Water Temp Dewpoint Dewpoint Depression Visibility Wind Speed Wind Dir Waves Ship Positions

Asian Infinity

Last reported at 2018-Apr-18 11:41 UTC. Time now 2018-Apr-24 16:27 UTC.
Position N 34°03' E 136°43'.

Length 104 m; draft 6.4 m.

Type: Cargo ship. MMSI: 351868000.

Date/timePositionNaut miles runAvg speedWind from/ knotsBaromVisibWave heightAir tempDewpointWater temp
2018-Apr-18 11:41N 34°03' E 136°43'3 9.6
2018-Apr-18 11:26N 34°05' E 136°45'24 9.4
2018-Apr-18 08:49N 34°26' E 137°01'3 9.9
2018-Apr-18 08:29N 34°29' E 137°02'4 8.9
2018-Apr-18 08:00N 34°33' E 137°00'5 9.0
2018-Apr-18 07:30N 34°36' E 136°56'5 9.6
2018-Apr-18 07:00N 34°39' E 136°52'5 9.4
2018-Apr-18 06:30N 34°43' E 136°48'5 9.7
2018-Apr-18 06:00N 34°48' E 136°46'5 9.7
2018-Apr-18 05:30N 34°52' E 136°46'5 9.5
2018-Apr-18 05:00N 34°57' E 136°47'5 9.8
2018-Apr-18 04:30N 35°01' E 136°50'2 3.3
2018-Apr-18 03:59N 35°03' E 136°51'0 0.0
2018-Apr-18 03:29N 35°03' E 136°51'0 0.0
2018-Apr-18 02:59N 35°03' E 136°51'0 0.0
2018-Apr-18 02:29N 35°03' E 136°51'0 0.0
2018-Apr-18 01:59N 35°03' E 136°51'0 0.0
2018-Apr-18 01:29N 35°03' E 136°51'0 0.0
2018-Apr-18 00:59N 35°03' E 136°51'0 0.0
2018-Apr-18 00:26N 35°03' E 136°51'0 0.0
2018-Apr-17 23:56N 35°03' E 136°51'0 0.0
2018-Apr-17 23:26N 35°03' E 136°51'0 0.0
2018-Apr-17 22:56N 35°03' E 136°51'0 0.0
2018-Apr-17 22:29N 35°03' E 136°51'0 0.0
2018-Apr-17 21:59N 35°03' E 136°51'0 0.0
2018-Apr-17 21:29N 35°03' E 136°51'0 0.0
2018-Apr-17 20:59N 35°03' E 136°51'0 0.0
2018-Apr-17 20:29N 35°03' E 136°51'0 0.0
2018-Apr-17 19:56N 35°03' E 136°51'0 0.0
2018-Apr-17 19:29N 35°03' E 136°51'0 0.0
2018-Apr-17 18:59N 35°03' E 136°51'0 0.0
2018-Apr-17 18:26N 35°03' E 136°51'0 0.0
2018-Apr-17 17:59N 35°03' E 136°51'0 0.0
2018-Apr-17 17:29N 35°03' E 136°51'0 0.0
2018-Apr-17 16:59N 35°03' E 136°51'0 0.0
2018-Apr-17 16:29N 35°03' E 136°51'0 0.0
2018-Apr-17 15:59N 35°03' E 136°51'0 0.0
2018-Apr-17 15:23N 35°03' E 136°51'0 0.0
2018-Apr-17 14:56N 35°03' E 136°51'0 0.0
2018-Apr-17 14:26N 35°03' E 136°51'0 0.0
2018-Apr-17 13:56N 35°03' E 136°51'0 0.0
2018-Apr-17 13:29N 35°03' E 136°51'0 0.0
2018-Apr-17 12:59N 35°03' E 136°51'0 0.0
2018-Apr-17 12:29N 35°03' E 136°51'0 0.0
2018-Apr-17 11:56N 35°03' E 136°51'0 0.0
2018-Apr-17 11:26N 35°03' E 136°51'0 0.0
2018-Apr-17 10:44N 35°03' E 136°51'0 0.0
2018-Apr-17 10:29N 35°03' E 136°51'0 0.0
2018-Apr-17 09:56N 35°03' E 136°51'0 0.0
2018-Apr-17 09:26N 35°03' E 136°51'0 0.0
2018-Apr-17 08:59N 35°03' E 136°51'0 0.0
2018-Apr-17 08:26N 35°03' E 136°51'0 0.1
2018-Apr-17 07:59N 35°03' E 136°51'0 0.1
2018-Apr-17 07:29N 35°03' E 136°51'0 0.0
2018-Apr-17 06:56N 35°03' E 136°51'0 0.1
2018-Apr-17 06:30N 35°03' E 136°51'1 2.1
2018-Apr-17 06:00N 35°02' E 136°51'4 7.3
2018-Apr-17 05:30N 34°59' E 136°48'5 9.6
2018-Apr-17 05:00N 34°54' E 136°46'510.6
2018-Apr-17 04:30N 34°49' E 136°46'510.6
2018-Apr-17 04:00N 34°44' E 136°49'510.1
2018-Apr-17 03:30N 34°40' E 136°52'5 9.7
2018-Apr-17 02:59N 34°37' E 136°57'5 9.5
2018-Apr-17 02:30N 34°33' E 137°01'5 8.5
2018-Apr-17 01:54N 34°31' E 137°06'410.0
2018-Apr-17 01:30N 34°30' E 137°11'510.2
2018-Apr-17 01:00N 34°29' E 137°17'510.0
2018-Apr-17 00:30N 34°29' E 137°23'1610.4
2018-Apr-16 22:58N 34°30' E 137°42'610.6
2018-Apr-16 22:25N 34°30' E 137°49'4 9.7
2018-Apr-16 21:57N 34°30' E 137°55'610.6
2018-Apr-16 21:24N 34°30' E 138°02'511.2
2018-Apr-16 20:57N 34°30' E 138°08'510.1
2018-Apr-16 20:25N 34°31' E 138°14'510.5
2018-Apr-16 19:58N 34°31' E 138°20'510.6
2018-Apr-16 19:29N 34°32' E 138°26'610.4
2018-Apr-16 18:55N 34°32' E 138°33'410.0
2018-Apr-16 18:30N 34°32' E 138°38'5 9.9
2018-Apr-16 18:00N 34°32' E 138°45'510.0
2018-Apr-16 17:30N 34°32' E 138°51'5 9.6
2018-Apr-16 16:59N 34°32' E 138°57'510.2
2018-Apr-16 16:29N 34°36' E 139°01'5 9.9
2018-Apr-16 16:00N 34°39' E 139°05'8 9.7
2018-Apr-16 15:09N 34°46' E 139°12'2 9.5
2018-Apr-16 14:57N 34°47' E 139°13'4 9.4
2018-Apr-16 14:30N 34°50' E 139°17'4 8.9
2018-Apr-16 14:00N 34°53' E 139°21'4 8.5
2018-Apr-16 13:28N 34°55' E 139°26'4 8.8
2018-Apr-16 13:00N 34°58' E 139°29'5 9.2
2018-Apr-16 12:30N 35°01' E 139°34'5 9.3
2018-Apr-16 12:00N 35°04' E 139°38'5 9.7
2018-Apr-16 11:30N 35°07' E 139°43'5 9.8
2018-Apr-16 11:00N 35°11' E 139°46'5 9.8
2018-Apr-16 10:30N 35°16' E 139°45'510.1
2018-Apr-16 10:00N 35°21' E 139°42'510.1
2018-Apr-16 09:30N 35°26' E 139°42'2 4.2
2018-Apr-16 09:01N 35°27' E 139°40'0 0.1
2018-Apr-16 08:29N 35°27' E 139°40'0 0.0
2018-Apr-16 07:59N 35°27' E 139°40'0 0.1
2018-Apr-16 07:29N 35°27' E 139°40'0 0.1
2018-Apr-16 06:59N 35°27' E 139°40'0 0.0
2018-Apr-16 06:29N 35°27' E 139°40'0 0.1
2018-Apr-16 05:59N 35°27' E 139°40'0 0.1
2018-Apr-16 05:29N 35°27' E 139°40'0 0.0
2018-Apr-16 04:59N 35°27' E 139°40'0 0.0
2018-Apr-16 04:29N 35°27' E 139°40'0 0.0
2018-Apr-16 03:59N 35°27' E 139°40'0 0.1
2018-Apr-16 03:29N 35°27' E 139°40'0 0.0
2018-Apr-16 02:59N 35°27' E 139°40'0 0.1
2018-Apr-16 02:29N 35°27' E 139°40'0 0.0
2018-Apr-16 01:59N 35°27' E 139°40'0 0.1
2018-Apr-16 01:29N 35°27' E 139°40'0 0.1
2018-Apr-16 00:59N 35°27' E 139°40'0 0.0
2018-Apr-16 00:29N 35°27' E 139°40'0 0.0
2018-Apr-15 23:59N 35°27' E 139°40'0 0.0
2018-Apr-15 23:29N 35°27' E 139°40'0 0.0
2018-Apr-15 22:59N 35°27' E 139°40'0 0.0
2018-Apr-15 22:29N 35°27' E 139°40'0 0.0
2018-Apr-15 21:59N 35°27' E 139°40'0 0.1
2018-Apr-15 21:29N 35°27' E 139°40'0 0.0
2018-Apr-15 20:59N 35°27' E 139°40'0 0.1
2018-Apr-15 20:29N 35°27' E 139°40'0 0.0
2018-Apr-15 19:59N 35°27' E 139°40'0 0.0
2018-Apr-15 19:29N 35°27' E 139°40'0 0.0
2018-Apr-15 18:59N 35°27' E 139°40'0 0.0
2018-Apr-15 18:29N 35°27' E 139°40'0 0.0
2018-Apr-15 17:59N 35°27' E 139°40'0 0.1
2018-Apr-15 17:29N 35°27' E 139°40'0 0.0
2018-Apr-15 16:59N 35°27' E 139°40'0 0.0
2018-Apr-15 16:29N 35°27' E 139°40'0 0.0
2018-Apr-15 15:59N 35°27' E 139°40'0 0.0
2018-Apr-15 15:29N 35°27' E 139°40'0 0.1
2018-Apr-15 14:59N 35°27' E 139°40'0 0.0
2018-Apr-15 14:29N 35°27' E 139°40'0 0.0
2018-Apr-15 13:59N 35°27' E 139°40'0 0.0
2018-Apr-15 13:29N 35°27' E 139°40'0 0.1
2018-Apr-15 12:59N 35°27' E 139°40'0 0.1
2018-Apr-15 12:29N 35°27' E 139°40'0 0.1
2018-Apr-15 11:59N 35°27' E 139°40'0 0.1
2018-Apr-15 11:29N 35°27' E 139°40'0 0.1
2018-Apr-15 10:59N 35°27' E 139°40'0 0.1
2018-Apr-15 10:29N 35°27' E 139°40'0 0.0
2018-Apr-15 09:59N 35°27' E 139°40'0 0.0
2018-Apr-15 09:29N 35°27' E 139°40'0 0.0
2018-Apr-15 08:59N 35°27' E 139°40'0 0.1
2018-Apr-15 08:29N 35°27' E 139°40'0 0.1
2018-Apr-15 07:59N 35°27' E 139°40'0 0.0
2018-Apr-15 07:29N 35°27' E 139°40'0 0.0
2018-Apr-15 06:59N 35°27' E 139°40'0 0.0
2018-Apr-15 06:29N 35°27' E 139°40'0 0.0
2018-Apr-15 05:59N 35°27' E 139°40'0 0.0
2018-Apr-15 05:29N 35°27' E 139°40'0 0.1
2018-Apr-15 04:59N 35°27' E 139°40'0 0.1
2018-Apr-15 04:29N 35°27' E 139°40'0 0.0
2018-Apr-15 03:59N 35°27' E 139°40'0 0.1
2018-Apr-15 03:29N 35°27' E 139°40'0 0.0
2018-Apr-15 02:59N 35°27' E 139°40'0 0.1
2018-Apr-15 02:29N 35°27' E 139°40'0 0.0
2018-Apr-15 01:59N 35°27' E 139°40'0 0.1
2018-Apr-15 01:29N 35°27' E 139°40'0 0.1
2018-Apr-15 00:59N 35°27' E 139°40'0 0.0
2018-Apr-15 00:29N 35°27' E 139°40'0 0.0
2018-Apr-14 23:59N 35°27' E 139°40'0 0.0
2018-Apr-14 23:29N 35°27' E 139°40'0 0.0
2018-Apr-14 22:59N 35°27' E 139°40'0 0.0
2018-Apr-14 22:29N 35°27' E 139°40'0 0.0
2018-Apr-14 21:59N 35°27' E 139°40'0 0.1
2018-Apr-14 21:29N 35°27' E 139°40'0 0.1
2018-Apr-14 20:59N 35°27' E 139°40'0 0.1
2018-Apr-14 20:29N 35°27' E 139°40'0 0.1
2018-Apr-14 19:59N 35°27' E 139°40'0 0.0
2018-Apr-14 19:29N 35°27' E 139°40'0 0.1
2018-Apr-14 18:59N 35°27' E 139°40'0 0.0
2018-Apr-14 18:29N 35°27' E 139°40'0 0.0
2018-Apr-14 17:56N 35°27' E 139°40'0 0.0
2018-Apr-14 17:29N 35°27' E 139°40'0 0.0
2018-Apr-14 16:59N 35°27' E 139°40'0 0.1
2018-Apr-14 16:29N 35°27' E 139°40'0 0.1
2018-Apr-14 15:59N 35°27' E 139°40'0 0.1
2018-Apr-14 15:29N 35°27' E 139°40'0 0.0
2018-Apr-14 14:59N 35°27' E 139°40'0 0.0
2018-Apr-14 14:29N 35°27' E 139°40'0 0.1
2018-Apr-14 13:59N 35°27' E 139°40'0 0.1
2018-Apr-14 13:29N 35°27' E 139°40'0 0.1
2018-Apr-14 12:59N 35°27' E 139°40'0 0.1
2018-Apr-14 12:29N 35°27' E 139°40'0 0.1
2018-Apr-14 11:59N 35°27' E 139°40'0 0.1
2018-Apr-14 11:29N 35°27' E 139°40'0 0.0
2018-Apr-14 10:59N 35°27' E 139°40'0 0.0
2018-Apr-14 10:29N 35°27' E 139°40'0 0.0
2018-Apr-14 09:59N 35°27' E 139°40'0 0.1
2018-Apr-14 09:29N 35°27' E 139°40'0 0.0
2018-Apr-14 08:59N 35°27' E 139°40'0 0.0
2018-Apr-14 08:29N 35°27' E 139°40'0 0.0
2018-Apr-14 07:59N 35°27' E 139°40'0 0.1
2018-Apr-14 07:29N 35°27' E 139°40'0 0.0
2018-Apr-14 06:59N 35°27' E 139°40'0 0.1
2018-Apr-14 06:29N 35°27' E 139°40'0 0.0
2018-Apr-14 05:59N 35°27' E 139°40'0 0.0
2018-Apr-14 05:29N 35°27' E 139°40'0 0.0
2018-Apr-14 04:59N 35°27' E 139°40'0 0.1
2018-Apr-14 04:29N 35°27' E 139°40'0 0.0
2018-Apr-14 03:59N 35°27' E 139°40'0 0.0
2018-Apr-14 03:29N 35°27' E 139°40'0 0.0
2018-Apr-14 02:59N 35°27' E 139°40'0 0.0
2018-Apr-14 02:29N 35°27' E 139°40'0 0.1
2018-Apr-14 01:59N 35°27' E 139°40'0 0.0
2018-Apr-14 01:29N 35°27' E 139°40'0 0.1
2018-Apr-14 00:59N 35°27' E 139°40'0 0.0
2018-Apr-14 00:29N 35°27' E 139°40'0 0.0
2018-Apr-13 23:59N 35°27' E 139°40'0 0.0
2018-Apr-13 23:29N 35°27' E 139°40'0 0.0
2018-Apr-13 22:59N 35°27' E 139°40'0 0.1
2018-Apr-13 22:29N 35°27' E 139°40'0 0.1
2018-Apr-13 21:59N 35°27' E 139°40'0 0.0
2018-Apr-13 21:29N 35°27' E 139°40'0 0.1
2018-Apr-13 20:56N 35°27' E 139°40'0 0.1
2018-Apr-13 20:29N 35°27' E 139°40'0 0.1
2018-Apr-13 19:59N 35°27' E 139°40'0 0.1
2018-Apr-13 19:29N 35°27' E 139°40'0 0.0
2018-Apr-13 18:59N 35°27' E 139°40'0 0.0
2018-Apr-13 18:29N 35°27' E 139°40'0 0.0
2018-Apr-13 17:59N 35°27' E 139°40'0 0.0
2018-Apr-13 17:29N 35°27' E 139°40'0 0.0
2018-Apr-13 16:59N 35°27' E 139°40'0 0.1
2018-Apr-13 16:29N 35°27' E 139°40'0 0.1
2018-Apr-13 15:59N 35°27' E 139°40'0 0.0
2018-Apr-13 15:29N 35°27' E 139°40'0 0.0
2018-Apr-13 14:59N 35°27' E 139°40'0 0.0
2018-Apr-13 14:29N 35°27' E 139°40'0 0.0
2018-Apr-13 13:59N 35°27' E 139°40'0 0.0
2018-Apr-13 13:29N 35°27' E 139°40'0 0.0
2018-Apr-13 12:59N 35°27' E 139°40'0 0.0
2018-Apr-13 12:29N 35°27' E 139°40'0 0.0
2018-Apr-13 11:59N 35°27' E 139°40'0 0.0
2018-Apr-13 11:29N 35°27' E 139°40'0 0.0
2018-Apr-13 10:59N 35°27' E 139°40'0 0.0
2018-Apr-13 10:29N 35°27' E 139°40'0 0.0
2018-Apr-13 09:59N 35°27' E 139°40'0 0.0
2018-Apr-13 09:29N 35°27' E 139°40'0 0.1
2018-Apr-13 08:59N 35°27' E 139°40'0 0.0
2018-Apr-13 08:29N 35°27' E 139°40'0 0.0
2018-Apr-13 07:59N 35°27' E 139°40'0 0.1
2018-Apr-13 07:29N 35°27' E 139°40'0 0.0
2018-Apr-13 06:59N 35°27' E 139°40'0 0.0
2018-Apr-13 06:29N 35°27' E 139°40'0 0.0
2018-Apr-13 05:59N 35°27' E 139°40'0 0.0
2018-Apr-13 05:29N 35°27' E 139°40'0 0.0
2018-Apr-13 04:56N 35°27' E 139°40'0 0.0
2018-Apr-13 04:29N 35°27' E 139°40'0 0.0
2018-Apr-13 03:59N 35°27' E 139°40'0 0.0
2018-Apr-13 03:29N 35°27' E 139°40'0 0.0
2018-Apr-13 02:59N 35°27' E 139°40'0 0.0
2018-Apr-13 02:29N 35°27' E 139°40'0 0.1
2018-Apr-13 01:59N 35°27' E 139°40'0 0.0
2018-Apr-13 01:29N 35°27' E 139°40'0 0.1
2018-Apr-13 00:59N 35°27' E 139°40'0 0.1
2018-Apr-13 00:29N 35°27' E 139°40'0 0.1
2018-Apr-12 23:59N 35°27' E 139°40'0 0.0
2018-Apr-12 23:29N 35°27' E 139°40'0 0.1
2018-Apr-12 22:59N 35°27' E 139°40'0 0.1
2018-Apr-12 22:29N 35°27' E 139°40'0 0.0
2018-Apr-12 21:59N 35°27' E 139°40'0 0.1
2018-Apr-12 21:29N 35°27' E 139°40'0 0.1
2018-Apr-12 20:59N 35°27' E 139°40'0 0.1
2018-Apr-12 20:29N 35°27' E 139°40'0 0.1
2018-Apr-12 19:59N 35°27' E 139°40'0 0.1
2018-Apr-12 19:29N 35°27' E 139°40'0 0.0
2018-Apr-12 18:59N 35°27' E 139°40'0 0.1
2018-Apr-12 18:29N 35°27' E 139°40'0 0.1
2018-Apr-12 17:59N 35°27' E 139°40'0 0.0
2018-Apr-12 17:29N 35°27' E 139°40'0 0.1
2018-Apr-12 16:59N 35°27' E 139°40'0 0.1
2018-Apr-12 16:29N 35°27' E 139°40'0 0.0
2018-Apr-12 15:59N 35°27' E 139°40'0 0.1
2018-Apr-12 15:29N 35°27' E 139°40'0 0.1
2018-Apr-12 14:59N 35°27' E 139°40'0 0.1
2018-Apr-12 14:29N 35°27' E 139°40'0 0.1
2018-Apr-12 13:59N 35°27' E 139°40'0 0.1
2018-Apr-12 13:29N 35°27' E 139°40'0 0.1
2018-Apr-12 12:56N 35°27' E 139°40'0 0.0
2018-Apr-12 12:29N 35°27' E 139°40'0 0.0
2018-Apr-12 11:59N 35°27' E 139°40'0 0.1
2018-Apr-12 11:29N 35°27' E 139°40'0 0.0
2018-Apr-12 10:59N 35°27' E 139°40'0 0.0
2018-Apr-12 10:29N 35°27' E 139°40'0 0.1
2018-Apr-12 09:59N 35°27' E 139°40'0 0.1
2018-Apr-12 09:29N 35°27' E 139°40'0 0.1
2018-Apr-12 08:59N 35°27' E 139°40'0 0.1
2018-Apr-12 08:29N 35°27' E 139°40'0 0.0
2018-Apr-12 07:59N 35°27' E 139°40'0 0.0
2018-Apr-12 07:29N 35°27' E 139°40'0 0.0
2018-Apr-12 06:59N 35°27' E 139°40'0 0.0
2018-Apr-12 06:29N 35°27' E 139°40'0 0.0
2018-Apr-12 05:59N 35°27' E 139°40'0 0.1
2018-Apr-12 05:29N 35°27' E 139°40'0 0.1
2018-Apr-12 04:59N 35°27' E 139°40'0 0.0
2018-Apr-12 04:29N 35°27' E 139°40'0 0.0
2018-Apr-12 03:59N 35°27' E 139°40'0 0.0
2018-Apr-12 03:29N 35°27' E 139°40'0 0.0
2018-Apr-12 02:59N 35°27' E 139°40'0 0.0
2018-Apr-12 02:26N 35°27' E 139°40'0 0.0
2018-Apr-12 01:59N 35°27' E 139°40'0 0.0
2018-Apr-12 01:29N 35°27' E 139°40'0 0.0
2018-Apr-12 01:00N 35°27' E 139°40'1 2.7
2018-Apr-12 00:30N 35°27' E 139°42'3 6.3
2018-Apr-12 00:00N 35°24' E 139°43'3 6.9
2018-Apr-11 23:30N 35°20' E 139°43'5 9.1
2018-Apr-11 23:00N 35°16' E 139°46'5 9.5
2018-Apr-11 22:30N 35°12' E 139°47'510.6
2018-Apr-11 22:00N 35°07' E 139°46'510.9
2018-Apr-11 21:30N 35°03' E 139°41'4 8.9
2018-Apr-11 21:00N 34°59' E 139°39'4 8.0
2018-Apr-11 20:30N 34°57' E 139°34'611.5
2018-Apr-11 20:00N 34°55' E 139°28'3 5.8
2018-Apr-11 19:30N 34°54' E 139°32'4 7.7
2018-Apr-11 19:00N 34°53' E 139°36'510.7
2018-Apr-11 18:31N 34°52' E 139°29'611.1
2018-Apr-11 18:00N 34°52' E 139°23'612.8
2018-Apr-11 17:30N 34°47' E 139°17'812.8
2018-Apr-11 16:52N 34°41' E 139°11'512.6
2018-Apr-11 16:31N 34°38' E 139°07'612.0
2018-Apr-11 16:00N 34°33' E 139°02'611.9
2018-Apr-11 15:30N 34°31' E 138°55'612.0
2018-Apr-11 14:58N 34°31' E 138°47'712.6
2018-Apr-11 14:24N 34°30' E 138°39'512.8
2018-Apr-11 14:00N 34°29' E 138°32'16610.6
2018-Apr-10 22:17N 33°32' E 135°24'610.0
2018-Apr-10 21:44N 33°35' E 135°19'411.2
2018-Apr-10 21:24N 33°38' E 135°16'811.2
2018-Apr-10 20:41N 33°44' E 135°09'2 9.8
2018-Apr-10 20:30N 33°45' E 135°08'5 9.8
2018-Apr-10 19:59N 33°49' E 135°03'5 9.7
2018-Apr-10 19:30N 33°52' E 134°60'5 9.1
2018-Apr-10 19:00N 33°57' E 134°60'4 8.7
2018-Apr-10 18:30N 34°01' E 134°60'4 8.8
2018-Apr-10 18:00N 34°06' E 134°59'5 9.2
2018-Apr-10 17:30N 34°10' E 134°59'5 9.4
2018-Apr-10 17:00N 34°15' E 134°59'4 8.7
2018-Apr-10 16:30N 34°19' E 134°59'5 9.6
2018-Apr-10 16:00N 34°24' E 135°01'5 9.5
2018-Apr-10 15:30N 34°28' E 135°02'5 9.5
2018-Apr-10 15:00N 34°33' E 135°04'5 9.1
2018-Apr-10 14:30N 34°37' E 135°01'611.6
2018-Apr-10 14:00N 34°35' E 134°54'611.7
2018-Apr-10 13:30N 34°33' E 134°48'510.9
2018-Apr-10 13:00N 34°31' E 134°42'510.5
2018-Apr-10 12:30N 34°29' E 134°36'510.2
2018-Apr-10 12:00N 34°27' E 134°30'510.4
2018-Apr-10 11:30N 34°25' E 134°24'510.8
2018-Apr-10 11:00N 34°24' E 134°18'510.4
2018-Apr-10 10:29N 34°24' E 134°12'  

Dump ship's entire track history